Aeroporto :
LOGIN :

Iscrizione | Disclaimer

   EN    FR    IT 

 










Sommario :    VFR   VFR Marginale   IFR   IFR Intensivo   IFR Molto Intensivo
Visibilità : 
Base nubi : 
>= 8 km
>= 3000ft
5 / 8 km
1000 / 3000 ft
1500m / 5 km
500 / 1000 ft
800 / 1500m
200 / 500 ft
< 800m
< 200 ft
Simboli :   Temporali  Nebbia  Neve Forte  Precipitazioni Forti  Vento > 20 kt
SIGMETs :   Varie  Temporali  Ghiacco  Turbolenza  Onda orograficha  Ceneri Vulcaniche







- Altitudine del aeroporto : 610 ft
- Codice IATA : VXO


ESMX - Växjö Kronoberg

ULTIMO METAR :
  • 181550Z 31009KT 9999 BKN017 03/03 Q1000

METARs OBSOLETI :
  • 181520Z 28011KT 9999 BKN016 03/03 Q0999
  • 181450Z 27010KT 240V300 9999 -SHRA BKN009 04/04 Q0998
  • 181420Z 27011KT 9999 BKN014 04/04 Q0997
  • 181350Z 26011KT 9999 SCT015 05/05 Q0996
  • 181320Z 26010KT 9999 SCT014 04/04 Q0996

TAF TAF ESMX
Valido dal 18 a 15 ore il 18 a 23 ore UTC


181430Z 1815/1823 27012KT 9999 SCT015 BKN020
PROB40 1815/1816 SHRA BKN014CB
Nessun NOTAM noto per questo aeroporto.



MetMap, La meteo Aeronautica in un colpo d'occhio ! - Copyright ORBIFLY Dicembre 2007 - Disclaimer

ORBIFLY MET'MAP TEAM :

Programmazione e sviluppo : Alexandra Zaïnal
Concezione e sviluppo : Baudouin d'Aumeries
Co-Programmazione e sviluppo : Marc-Olivier Méhu
Supporto tecnico e logistico : Manuel Goepfert
Aiuto per la traduzione : Arnaldo La Scala

Contatto : metmap@orbifly.com




FONTI E CREDITI :

   NOAA